Austin, TX

7:30 PM CDT on March 26, 2015 (GMT -0500)
Thermal Lab Facility, CSD | | Change Station
CLOSE
Current Station
Personal Weather Station
Location: Austin, TX
Elevation: 600 ft
Nearby Weather Stations

Elev 600 ft 30.29 °N, 97.74 °W | Updated 43 seconds ago

Partly Cloudy
Partly Cloudy
67.6 °F
Feels Like 67.6 °F
N
0.0
Wind Variable Wind from NW
Gusts 0.0 mph

Today
High -- | Low -- °F
--% Chance of Precip.
Yesterday
High -- | Low -- °F
Precip. -- in
7:27 AM 7:46 PM
Waxing Crescent, 47% visible
Pressure 30.08 in
Visibility 10.0 miles
Clouds Clear
Dew Point 39 °F
Humidity 35%
Rainfall in
Snow Depth Not available.
UV 1 out of 12
Pollen 9.70 out of 12
Air Quality Not available.
Flu Activity Not available.
METAR KATT 262351Z AUTO 02008G16KT 10SM CLR 19/02 A3009 RMK AO2 SLP184 T01940022 10211 20161 51010

More Conditions Fewer Conditions

Pressure 30.08 in
Visibility 10.0 miles
Clouds Clear
Dew Point 39 °F
Humidity 35%
Rainfall in
Snow Depth Not available.
UV 1 out of 12
Pollen 9.70 out of 12
Air Quality Not available.
Flu Activity Not available.
METAR KATT 262351Z AUTO 02008G16KT 10SM CLR 19/02 A3009 RMK AO2 SLP184 T01940022 10211 20161 51010

More Conditions Fewer Conditions

10-Day Weather Forecast

Almanac

Astronomy

Mar. 26, 2015 Rise Set
Actual Time
Civil Twilight
Nautical Twilight
Astronomical Twilight
Moon
Length of Visible Light
Length of Day
Tomorrow will be .
, % of the Moon is Illuminated

Today's Extremes

State Highs State Lows

Community

WunderPhotos

Upload Photos

1,808,654 photos uploaded!

WunderBlogs® & News

Nearby

Air Quality

  Air Quality AQ Index Pollutant
Not available.

Snow Depth

Station Depth Elevation

Earthquake Activity

City Distance Mag. Time & Date
Minimum magnitude displayed is 2.5.

Coastal Water Temperatures

Place Temperature

Stations

Nearby Weather Stations

Station Location Temp. Windchill Dew Point Humidity Wind Precip. Elev Updated Type